sensor_id;sensor_type;location;lat;lon;timestamp;P1;durP1;ratioP1;P2;durP2;ratioP2
67278;SDS011;54193;53.746;10.058;2023-06-14T00:02:14;12.67;;;6.37;;
67278;SDS011;54193;53.746;10.058;2023-06-14T00:05:01;18.58;;;6.95;;
67278;SDS011;54193;53.746;10.058;2023-06-14T00:07:46;14.32;;;6.80;;
67278;SDS011;54193;53.746;10.058;2023-06-14T00:10:34;15.25;;;7.47;;
67278;SDS011;54193;53.746;10.058;2023-06-14T00:13:20;17.92;;;7.18;;
67278;SDS011;54193;53.746;10.058;2023-06-14T00:16:06;14.60;;;7.65;;
67278;SDS011;54193;53.746;10.058;2023-06-14T00:18:51;16.02;;;7.03;;
67278;SDS011;54193;53.746;10.058;2023-06-14T00:21:37;14.20;;;7.33;;
67278;SDS011;54193;53.746;10.058;2023-06-14T00:24:23;16.00;;;7.25;;
67278;SDS011;54193;53.746;10.058;2023-06-14T00:27:09;14.68;;;7.55;;
67278;SDS011;54193;53.746;10.058;2023-06-14T00:29:55;15.27;;;7.43;;
67278;SDS011;54193;53.746;10.058;2023-06-14T00:32:40;14.98;;;7.90;;
67278;SDS011;54193;53.746;10.058;2023-06-14T00:35:28;15.23;;;7.57;;
67278;SDS011;54193;53.746;10.058;2023-06-14T00:38:13;14.93;;;7.80;;
67278;SDS011;54193;53.746;10.058;2023-06-14T00:40:59;15.82;;;8.02;;
67278;SDS011;54193;53.746;10.058;2023-06-14T00:43:45;14.90;;;6.85;;
67278;SDS011;54193;53.746;10.058;2023-06-14T00:46:31;14.05;;;7.68;;
67278;SDS011;54193;53.746;10.058;2023-06-14T00:49:16;16.00;;;7.90;;
67278;SDS011;54193;53.746;10.058;2023-06-14T00:52:04;15.65;;;7.30;;
67278;SDS011;54193;53.746;10.058;2023-06-14T00:54:51;16.00;;;7.20;;
67278;SDS011;54193;53.746;10.058;2023-06-14T00:57:37;16.10;;;7.53;;
67278;SDS011;54193;53.746;10.058;2023-06-14T01:00:23;14.35;;;6.70;;
67278;SDS011;54193;53.746;10.058;2023-06-14T01:03:09;16.00;;;7.45;;
67278;SDS011;54193;53.746;10.058;2023-06-14T01:06:05;19.63;;;8.00;;
67278;SDS011;54193;53.746;10.058;2023-06-14T01:09:33;15.20;;;7.68;;
67278;SDS011;54193;53.746;10.058;2023-06-14T01:12:46;15.75;;;7.97;;
67278;SDS011;54193;53.746;10.058;2023-06-14T01:15:43;15.75;;;7.78;;
67278;SDS011;54193;53.746;10.058;2023-06-14T01:18:29;17.23;;;7.90;;
67278;SDS011;54193;53.746;10.058;2023-06-14T01:21:21;18.83;;;9.40;;
67278;SDS011;54193;53.746;10.058;2023-06-14T01:24:09;17.45;;;9.02;;
67278;SDS011;54193;53.746;10.058;2023-06-14T01:26:56;17.43;;;8.70;;
67278;SDS011;54193;53.746;10.058;2023-06-14T01:29:42;18.92;;;8.85;;
67278;SDS011;54193;53.746;10.058;2023-06-14T01:32:31;19.90;;;9.70;;
67278;SDS011;54193;53.746;10.058;2023-06-14T01:35:16;17.45;;;8.65;;
67278;SDS011;54193;53.746;10.058;2023-06-14T01:38:02;16.45;;;8.73;;
67278;SDS011;54193;53.746;10.058;2023-06-14T01:40:49;17.27;;;8.90;;
67278;SDS011;54193;53.746;10.058;2023-06-14T01:43:37;16.75;;;8.20;;
67278;SDS011;54193;53.746;10.058;2023-06-14T01:46:25;17.43;;;8.87;;
67278;SDS011;54193;53.746;10.058;2023-06-14T01:49:11;18.75;;;8.85;;
67278;SDS011;54193;53.746;10.058;2023-06-14T01:51:57;15.20;;;7.88;;
67278;SDS011;54193;53.746;10.058;2023-06-14T01:54:42;17.77;;;9.10;;
67278;SDS011;54193;53.746;10.058;2023-06-14T01:57:28;21.52;;;9.52;;
67278;SDS011;54193;53.746;10.058;2023-06-14T02:00:14;20.95;;;10.20;;
67278;SDS011;54193;53.746;10.058;2023-06-14T02:03:01;17.92;;;9.00;;
67278;SDS011;54193;53.746;10.058;2023-06-14T02:05:47;24.27;;;10.95;;
67278;SDS011;54193;53.746;10.058;2023-06-14T02:08:33;22.50;;;10.43;;
67278;SDS011;54193;53.746;10.058;2023-06-14T02:11:18;23.98;;;11.52;;
67278;SDS011;54193;53.746;10.058;2023-06-14T02:14:04;24.27;;;11.17;;
67278;SDS011;54193;53.746;10.058;2023-06-14T02:16:49;25.15;;;11.85;;
67278;SDS011;54193;53.746;10.058;2023-06-14T02:19:35;21.55;;;10.43;;
67278;SDS011;54193;53.746;10.058;2023-06-14T02:22:21;23.13;;;11.13;;
67278;SDS011;54193;53.746;10.058;2023-06-14T02:25:07;23.00;;;12.07;;
67278;SDS011;54193;53.746;10.058;2023-06-14T02:27:53;25.75;;;13.00;;
67278;SDS011;54193;53.746;10.058;2023-06-14T02:30:40;24.38;;;11.55;;
67278;SDS011;54193;53.746;10.058;2023-06-14T02:33:26;25.38;;;12.68;;
67278;SDS011;54193;53.746;10.058;2023-06-14T02:36:11;27.10;;;11.90;;
67278;SDS011;54193;53.746;10.058;2023-06-14T02:38:57;27.35;;;12.40;;
67278;SDS011;54193;53.746;10.058;2023-06-14T02:41:42;29.13;;;13.30;;
67278;SDS011;54193;53.746;10.058;2023-06-14T02:44:28;27.17;;;13.77;;
67278;SDS011;54193;53.746;10.058;2023-06-14T02:47:15;31.92;;;14.20;;
67278;SDS011;54193;53.746;10.058;2023-06-14T02:50:00;25.93;;;12.00;;
67278;SDS011;54193;53.746;10.058;2023-06-14T02:52:46;27.08;;;12.98;;
67278;SDS011;54193;53.746;10.058;2023-06-14T02:55:32;29.00;;;13.20;;
67278;SDS011;54193;53.746;10.058;2023-06-14T02:58:18;31.40;;;14.40;;
67278;SDS011;54193;53.746;10.058;2023-06-14T03:01:04;28.48;;;13.75;;
67278;SDS011;54193;53.746;10.058;2023-06-14T03:03:53;30.17;;;14.25;;
67278;SDS011;54193;53.746;10.058;2023-06-14T03:06:38;28.77;;;14.32;;
67278;SDS011;54193;53.746;10.058;2023-06-14T03:09:24;31.87;;;13.50;;
67278;SDS011;54193;53.746;10.058;2023-06-14T03:12:10;28.10;;;13.13;;
67278;SDS011;54193;53.746;10.058;2023-06-14T03:14:56;30.45;;;14.05;;
67278;SDS011;54193;53.746;10.058;2023-06-14T03:17:42;33.70;;;13.87;;
67278;SDS011;54193;53.746;10.058;2023-06-14T03:20:30;30.60;;;14.27;;
67278;SDS011;54193;53.746;10.058;2023-06-14T03:23:18;28.42;;;13.50;;
67278;SDS011;54193;53.746;10.058;2023-06-14T03:26:03;27.98;;;12.13;;
67278;SDS011;54193;53.746;10.058;2023-06-14T03:28:50;26.67;;;12.10;;
67278;SDS011;54193;53.746;10.058;2023-06-14T03:31:35;26.15;;;11.90;;
67278;SDS011;54193;53.746;10.058;2023-06-14T03:34:21;31.63;;;14.55;;
67278;SDS011;54193;53.746;10.058;2023-06-14T03:37:07;27.30;;;12.77;;
67278;SDS011;54193;53.746;10.058;2023-06-14T03:39:52;28.20;;;13.45;;
67278;SDS011;54193;53.746;10.058;2023-06-14T03:42:38;27.13;;;13.02;;
67278;SDS011;54193;53.746;10.058;2023-06-14T03:45:23;26.93;;;11.77;;
67278;SDS011;54193;53.746;10.058;2023-06-14T03:48:09;27.13;;;13.32;;
67278;SDS011;54193;53.746;10.058;2023-06-14T03:50:55;27.95;;;13.55;;
67278;SDS011;54193;53.746;10.058;2023-06-14T03:53:41;26.13;;;12.20;;
67278;SDS011;54193;53.746;10.058;2023-06-14T03:56:27;32.35;;;14.68;;
67278;SDS011;54193;53.746;10.058;2023-06-14T03:59:12;30.35;;;13.82;;
67278;SDS011;54193;53.746;10.058;2023-06-14T04:01:58;28.95;;;14.68;;
67278;SDS011;54193;53.746;10.058;2023-06-14T04:04:43;29.23;;;14.27;;
67278;SDS011;54193;53.746;10.058;2023-06-14T04:07:30;33.92;;;16.40;;
67278;SDS011;54193;53.746;10.058;2023-06-14T04:10:16;27.10;;;13.30;;
67278;SDS011;54193;53.746;10.058;2023-06-14T04:13:01;31.27;;;13.80;;
67278;SDS011;54193;53.746;10.058;2023-06-14T04:15:47;29.85;;;13.57;;
67278;SDS011;54193;53.746;10.058;2023-06-14T04:18:33;28.85;;;12.65;;
67278;SDS011;54193;53.746;10.058;2023-06-14T04:21:18;26.83;;;12.32;;
67278;SDS011;54193;53.746;10.058;2023-06-14T04:24:04;23.75;;;11.23;;
67278;SDS011;54193;53.746;10.058;2023-06-14T04:26:50;24.00;;;11.20;;
67278;SDS011;54193;53.746;10.058;2023-06-14T04:29:37;25.23;;;12.02;;
67278;SDS011;54193;53.746;10.058;2023-06-14T04:32:25;26.03;;;11.40;;
67278;SDS011;54193;53.746;10.058;2023-06-14T04:35:11;22.02;;;11.45;;
67278;SDS011;54193;53.746;10.058;2023-06-14T04:37:57;23.30;;;10.32;;
67278;SDS011;54193;53.746;10.058;2023-06-14T04:40:43;15.33;;;7.67;;
67278;SDS011;54193;53.746;10.058;2023-06-14T04:43:29;25.48;;;12.07;;
67278;SDS011;54193;53.746;10.058;2023-06-14T04:46:15;22.33;;;10.77;;
67278;SDS011;54193;53.746;10.058;2023-06-14T04:49:02;24.70;;;12.60;;
67278;SDS011;54193;53.746;10.058;2023-06-14T04:51:48;22.80;;;11.90;;
67278;SDS011;54193;53.746;10.058;2023-06-14T04:54:36;21.52;;;11.20;;
67278;SDS011;54193;53.746;10.058;2023-06-14T04:57:27;24.02;;;11.85;;
67278;SDS011;54193;53.746;10.058;2023-06-14T05:00:14;27.70;;;11.80;;
67278;SDS011;54193;53.746;10.058;2023-06-14T05:03:00;24.48;;;12.57;;
67278;SDS011;54193;53.746;10.058;2023-06-14T05:05:46;21.83;;;10.57;;
67278;SDS011;54193;53.746;10.058;2023-06-14T05:08:32;20.20;;;10.33;;
67278;SDS011;54193;53.746;10.058;2023-06-14T05:11:17;21.27;;;10.32;;
67278;SDS011;54193;53.746;10.058;2023-06-14T05:14:03;20.58;;;9.63;;
67278;SDS011;54193;53.746;10.058;2023-06-14T05:16:49;17.65;;;10.13;;
67278;SDS011;54193;53.746;10.058;2023-06-14T05:19:35;21.08;;;9.70;;
67278;SDS011;54193;53.746;10.058;2023-06-14T05:22:22;18.48;;;8.70;;
67278;SDS011;54193;53.746;10.058;2023-06-14T05:25:07;17.25;;;8.95;;
67278;SDS011;54193;53.746;10.058;2023-06-14T05:27:53;14.37;;;7.83;;
67278;SDS011;54193;53.746;10.058;2023-06-14T05:30:39;15.25;;;8.57;;
67278;SDS011;54193;53.746;10.058;2023-06-14T05:33:25;15.93;;;7.20;;
67278;SDS011;54193;53.746;10.058;2023-06-14T05:36:11;13.17;;;6.87;;
67278;SDS011;54193;53.746;10.058;2023-06-14T05:38:56;14.43;;;6.43;;
67278;SDS011;54193;53.746;10.058;2023-06-14T05:41:44;11.65;;;6.40;;
67278;SDS011;54193;53.746;10.058;2023-06-14T05:44:30;11.38;;;6.70;;
67278;SDS011;54193;53.746;10.058;2023-06-14T05:47:16;13.30;;;6.70;;
67278;SDS011;54193;53.746;10.058;2023-06-14T05:50:01;12.35;;;5.80;;
67278;SDS011;54193;53.746;10.058;2023-06-14T05:52:47;11.35;;;5.80;;
67278;SDS011;54193;53.746;10.058;2023-06-14T05:55:33;11.77;;;5.90;;
67278;SDS011;54193;53.746;10.058;2023-06-14T05:58:18;9.93;;;4.82;;
67278;SDS011;54193;53.746;10.058;2023-06-14T06:01:04;11.85;;;5.03;;
67278;SDS011;54193;53.746;10.058;2023-06-14T06:03:49;9.60;;;5.17;;
67278;SDS011;54193;53.746;10.058;2023-06-14T06:06:35;12.65;;;5.30;;
67278;SDS011;54193;53.746;10.058;2023-06-14T06:09:21;10.73;;;4.82;;
67278;SDS011;54193;53.746;10.058;2023-06-14T06:12:06;8.80;;;4.72;;
67278;SDS011;54193;53.746;10.058;2023-06-14T06:14:52;8.85;;;4.75;;
67278;SDS011;54193;53.746;10.058;2023-06-14T06:17:38;8.05;;;4.53;;
67278;SDS011;54193;53.746;10.058;2023-06-14T06:20:24;8.45;;;4.45;;
67278;SDS011;54193;53.746;10.058;2023-06-14T06:23:13;8.60;;;4.20;;
67278;SDS011;54193;53.746;10.058;2023-06-14T06:25:59;7.10;;;4.50;;
67278;SDS011;54193;53.746;10.058;2023-06-14T06:28:45;8.85;;;4.35;;
67278;SDS011;54193;53.746;10.058;2023-06-14T06:31:30;10.50;;;4.20;;
67278;SDS011;54193;53.746;10.058;2023-06-14T06:34:16;7.38;;;4.20;;
67278;SDS011;54193;53.746;10.058;2023-06-14T06:37:03;8.85;;;4.32;;
67278;SDS011;54193;53.746;10.058;2023-06-14T06:39:48;8.95;;;4.50;;
67278;SDS011;54193;53.746;10.058;2023-06-14T06:42:34;8.82;;;4.20;;
67278;SDS011;54193;53.746;10.058;2023-06-14T06:45:20;7.18;;;4.20;;
67278;SDS011;54193;53.746;10.058;2023-06-14T06:48:06;9.30;;;4.50;;
67278;SDS011;54193;53.746;10.058;2023-06-14T06:50:52;8.47;;;4.60;;
67278;SDS011;54193;53.746;10.058;2023-06-14T06:53:37;6.30;;;3.72;;
67278;SDS011;54193;53.746;10.058;2023-06-14T06:56:23;7.85;;;3.97;;
67278;SDS011;54193;53.746;10.058;2023-06-14T06:59:09;7.80;;;4.28;;
67278;SDS011;54193;53.746;10.058;2023-06-14T07:01:55;8.60;;;3.70;;
67278;SDS011;54193;53.746;10.058;2023-06-14T07:04:40;10.20;;;4.00;;
67278;SDS011;54193;53.746;10.058;2023-06-14T07:07:26;7.97;;;3.78;;
67278;SDS011;54193;53.746;10.058;2023-06-14T07:10:12;8.13;;;3.90;;
67278;SDS011;54193;53.746;10.058;2023-06-14T07:12:58;6.10;;;3.67;;
67278;SDS011;54193;53.746;10.058;2023-06-14T07:15:43;7.80;;;3.80;;
67278;SDS011;54193;53.746;10.058;2023-06-14T07:18:29;8.85;;;3.53;;
67278;SDS011;54193;53.746;10.058;2023-06-14T07:21:15;7.35;;;3.88;;
67278;SDS011;54193;53.746;10.058;2023-06-14T07:24:01;8.07;;;3.90;;
67278;SDS011;54193;53.746;10.058;2023-06-14T07:26:47;7.32;;;3.53;;
67278;SDS011;54193;53.746;10.058;2023-06-14T07:29:34;7.70;;;3.30;;
67278;SDS011;54193;53.746;10.058;2023-06-14T07:32:20;6.40;;;3.37;;
67278;SDS011;54193;53.746;10.058;2023-06-14T07:35:05;6.15;;;3.83;;
67278;SDS011;54193;53.746;10.058;2023-06-14T07:37:52;6.75;;;3.45;;
67278;SDS011;54193;53.746;10.058;2023-06-14T07:40:38;5.90;;;3.40;;
67278;SDS011;54193;53.746;10.058;2023-06-14T07:43:23;7.13;;;4.63;;
67278;SDS011;54193;53.746;10.058;2023-06-14T07:46:09;5.35;;;3.40;;
67278;SDS011;54193;53.746;10.058;2023-06-14T07:48:54;6.03;;;3.45;;
67278;SDS011;54193;53.746;10.058;2023-06-14T07:51:40;5.70;;;3.30;;
67278;SDS011;54193;53.746;10.058;2023-06-14T07:54:26;7.47;;;3.43;;
67278;SDS011;54193;53.746;10.058;2023-06-14T07:57:13;7.32;;;3.30;;
67278;SDS011;54193;53.746;10.058;2023-06-14T07:59:58;4.85;;;3.33;;
67278;SDS011;54193;53.746;10.058;2023-06-14T08:02:44;5.38;;;3.20;;
67278;SDS011;54193;53.746;10.058;2023-06-14T08:05:30;8.40;;;3.33;;
67278;SDS011;54193;53.746;10.058;2023-06-14T08:08:16;5.65;;;3.83;;
67278;SDS011;54193;53.746;10.058;2023-06-14T08:11:01;7.78;;;3.63;;
67278;SDS011;54193;53.746;10.058;2023-06-14T08:13:47;8.20;;;3.38;;
67278;SDS011;54193;53.746;10.058;2023-06-14T08:16:33;5.50;;;3.20;;
67278;SDS011;54193;53.746;10.058;2023-06-14T08:19:18;7.20;;;3.90;;
67278;SDS011;54193;53.746;10.058;2023-06-14T08:22:05;6.22;;;3.60;;
67278;SDS011;54193;53.746;10.058;2023-06-14T08:24:50;6.30;;;3.55;;
67278;SDS011;54193;53.746;10.058;2023-06-14T08:27:36;7.90;;;3.60;;
67278;SDS011;54193;53.746;10.058;2023-06-14T08:30:22;5.75;;;3.60;;
67278;SDS011;54193;53.746;10.058;2023-06-14T08:33:08;7.70;;;4.05;;
67278;SDS011;54193;53.746;10.058;2023-06-14T08:35:54;6.30;;;3.70;;
67278;SDS011;54193;53.746;10.058;2023-06-14T08:38:39;6.13;;;3.53;;
67278;SDS011;54193;53.746;10.058;2023-06-14T08:41:25;7.05;;;3.72;;
67278;SDS011;54193;53.746;10.058;2023-06-14T08:44:11;6.97;;;3.60;;
67278;SDS011;54193;53.746;10.058;2023-06-14T08:46:57;6.55;;;3.63;;
67278;SDS011;54193;53.746;10.058;2023-06-14T08:49:45;7.60;;;3.97;;
67278;SDS011;54193;53.746;10.058;2023-06-14T08:52:33;6.05;;;4.00;;
67278;SDS011;54193;53.746;10.058;2023-06-14T08:55:25;7.38;;;3.90;;
67278;SDS011;54193;53.746;10.058;2023-06-14T08:58:12;6.63;;;3.70;;
67278;SDS011;54193;53.746;10.058;2023-06-14T09:01:01;6.18;;;3.58;;
67278;SDS011;54193;53.746;10.058;2023-06-14T09:03:47;6.70;;;3.80;;
67278;SDS011;54193;53.746;10.058;2023-06-14T09:06:34;6.05;;;3.83;;
67278;SDS011;54193;53.746;10.058;2023-06-14T09:09:22;7.28;;;3.80;;
67278;SDS011;54193;53.746;10.058;2023-06-14T09:12:13;7.63;;;3.85;;
67278;SDS011;54193;53.746;10.058;2023-06-14T09:14:59;6.53;;;3.90;;
67278;SDS011;54193;53.746;10.058;2023-06-14T09:17:45;5.85;;;4.00;;
67278;SDS011;54193;53.746;10.058;2023-06-14T09:20:31;6.47;;;3.75;;
67278;SDS011;54193;53.746;10.058;2023-06-14T09:23:20;8.63;;;4.15;;
67278;SDS011;54193;53.746;10.058;2023-06-14T09:26:16;11.10;;;4.10;;
67278;SDS011;54193;53.746;10.058;2023-06-14T09:29:05;5.38;;;3.33;;
67278;SDS011;54193;53.746;10.058;2023-06-14T09:31:50;6.38;;;4.10;;
67278;SDS011;54193;53.746;10.058;2023-06-14T09:34:36;6.15;;;4.28;;
67278;SDS011;54193;53.746;10.058;2023-06-14T09:37:29;6.68;;;4.00;;
67278;SDS011;54193;53.746;10.058;2023-06-14T09:40:19;7.60;;;3.37;;
67278;SDS011;54193;53.746;10.058;2023-06-14T09:43:06;6.35;;;4.00;;
67278;SDS011;54193;53.746;10.058;2023-06-14T09:45:55;6.97;;;3.50;;
67278;SDS011;54193;53.746;10.058;2023-06-14T09:48:40;7.35;;;3.00;;
67278;SDS011;54193;53.746;10.058;2023-06-14T09:51:30;6.47;;;3.50;;
67278;SDS011;54193;53.746;10.058;2023-06-14T09:54:16;5.78;;;3.65;;
67278;SDS011;54193;53.746;10.058;2023-06-14T09:57:05;5.57;;;3.40;;
67278;SDS011;54193;53.746;10.058;2023-06-14T09:59:53;6.18;;;3.50;;
67278;SDS011;54193;53.746;10.058;2023-06-14T10:02:45;6.45;;;4.72;;
67278;SDS011;54193;53.746;10.058;2023-06-14T10:05:37;10.53;;;6.87;;
67278;SDS011;54193;53.746;10.058;2023-06-14T10:08:25;8.93;;;5.85;;
67278;SDS011;54193;53.746;10.058;2023-06-14T10:11:13;11.52;;;6.05;;
67278;SDS011;54193;53.746;10.058;2023-06-14T10:13:59;8.50;;;5.35;;
67278;SDS011;54193;53.746;10.058;2023-06-14T10:16:47;7.90;;;3.93;;
67278;SDS011;54193;53.746;10.058;2023-06-14T10:19:48;7.75;;;4.20;;
67278;SDS011;54193;53.746;10.058;2023-06-14T10:22:43;7.50;;;4.80;;
67278;SDS011;54193;53.746;10.058;2023-06-14T10:25:34;8.57;;;4.13;;
67278;SDS011;54193;53.746;10.058;2023-06-14T10:28:20;8.23;;;3.97;;
67278;SDS011;54193;53.746;10.058;2023-06-14T10:31:10;6.57;;;3.60;;
67278;SDS011;54193;53.746;10.058;2023-06-14T10:33:59;7.18;;;3.90;;
67278;SDS011;54193;53.746;10.058;2023-06-14T10:36:44;7.33;;;3.70;;
67278;SDS011;54193;53.746;10.058;2023-06-14T10:39:30;5.30;;;3.58;;
67278;SDS011;54193;53.746;10.058;2023-06-14T10:42:16;6.43;;;4.13;;
67278;SDS011;54193;53.746;10.058;2023-06-14T10:45:02;5.45;;;3.58;;
67278;SDS011;54193;53.746;10.058;2023-06-14T10:47:48;6.00;;;3.37;;
67278;SDS011;54193;53.746;10.058;2023-06-14T10:50:37;7.40;;;4.00;;
67278;SDS011;54193;53.746;10.058;2023-06-14T10:53:28;9.43;;;3.35;;
67278;SDS011;54193;53.746;10.058;2023-06-14T10:56:26;7.75;;;3.90;;
67278;SDS011;54193;53.746;10.058;2023-06-14T10:59:14;8.03;;;4.20;;
67278;SDS011;54193;53.746;10.058;2023-06-14T11:05:04;6.38;;;3.28;;
67278;SDS011;54193;53.746;10.058;2023-06-14T11:08:08;6.68;;;3.70;;
67278;SDS011;54193;53.746;10.058;2023-06-14T11:11:07;6.47;;;3.13;;
67278;SDS011;54193;53.746;10.058;2023-06-14T11:13:54;5.93;;;3.08;;
67278;SDS011;54193;53.746;10.058;2023-06-14T11:16:39;6.85;;;3.70;;
67278;SDS011;54193;53.746;10.058;2023-06-14T11:19:25;8.57;;;3.42;;
67278;SDS011;54193;53.746;10.058;2023-06-14T11:22:14;8.63;;;3.43;;
67278;SDS011;54193;53.746;10.058;2023-06-14T11:25:01;6.93;;;3.47;;
67278;SDS011;54193;53.746;10.058;2023-06-14T11:27:48;5.72;;;3.60;;
67278;SDS011;54193;53.746;10.058;2023-06-14T11:30:35;7.45;;;3.55;;
67278;SDS011;54193;53.746;10.058;2023-06-14T11:33:21;5.67;;;3.17;;
67278;SDS011;54193;53.746;10.058;2023-06-14T11:36:08;7.10;;;3.75;;
67278;SDS011;54193;53.746;10.058;2023-06-14T11:38:59;6.22;;;3.25;;
67278;SDS011;54193;53.746;10.058;2023-06-14T11:41:46;5.32;;;3.22;;
67278;SDS011;54193;53.746;10.058;2023-06-14T11:44:31;6.67;;;3.03;;
67278;SDS011;54193;53.746;10.058;2023-06-14T11:47:17;5.87;;;2.83;;
67278;SDS011;54193;53.746;10.058;2023-06-14T11:50:03;7.10;;;3.67;;
67278;SDS011;54193;53.746;10.058;2023-06-14T11:52:57;6.75;;;3.55;;
67278;SDS011;54193;53.746;10.058;2023-06-14T11:55:52;6.03;;;3.53;;
67278;SDS011;54193;53.746;10.058;2023-06-14T11:58:37;8.10;;;2.73;;
67278;SDS011;54193;53.746;10.058;2023-06-14T12:01:23;6.25;;;3.63;;
67278;SDS011;54193;53.746;10.058;2023-06-14T12:04:11;6.90;;;3.85;;
67278;SDS011;54193;53.746;10.058;2023-06-14T12:06:56;8.23;;;3.70;;
67278;SDS011;54193;53.746;10.058;2023-06-14T12:10:03;7.23;;;3.10;;
67278;SDS011;54193;53.746;10.058;2023-06-14T12:12:56;6.60;;;2.95;;
67278;SDS011;54193;53.746;10.058;2023-06-14T12:15:43;6.95;;;3.40;;
67278;SDS011;54193;53.746;10.058;2023-06-14T12:18:35;8.02;;;3.40;;
67278;SDS011;54193;53.746;10.058;2023-06-14T12:21:22;6.37;;;3.37;;
67278;SDS011;54193;53.746;10.058;2023-06-14T12:24:08;7.28;;;3.35;;
67278;SDS011;54193;53.746;10.058;2023-06-14T12:26:57;6.80;;;3.00;;
67278;SDS011;54193;53.746;10.058;2023-06-14T12:29:44;7.45;;;3.28;;
67278;SDS011;54193;53.746;10.058;2023-06-14T12:32:30;6.53;;;3.10;;
67278;SDS011;54193;53.746;10.058;2023-06-14T12:35:16;5.25;;;3.33;;
67278;SDS011;54193;53.746;10.058;2023-06-14T12:38:01;5.55;;;3.38;;
67278;SDS011;54193;53.746;10.058;2023-06-14T12:40:49;5.20;;;2.97;;
67278;SDS011;54193;53.746;10.058;2023-06-14T12:43:34;4.73;;;3.07;;
67278;SDS011;54193;53.746;10.058;2023-06-14T12:46:20;6.15;;;3.00;;
67278;SDS011;54193;53.746;10.058;2023-06-14T12:49:07;6.38;;;2.97;;
67278;SDS011;54193;53.746;10.058;2023-06-14T12:51:53;5.32;;;3.08;;
67278;SDS011;54193;53.746;10.058;2023-06-14T12:54:39;6.43;;;3.60;;
67278;SDS011;54193;53.746;10.058;2023-06-14T12:57:25;6.47;;;3.03;;
67278;SDS011;54193;53.746;10.058;2023-06-14T13:00:10;9.48;;;3.58;;
67278;SDS011;54193;53.746;10.058;2023-06-14T13:02:58;5.30;;;3.13;;
67278;SDS011;54193;53.746;10.058;2023-06-14T13:05:43;6.33;;;2.80;;
67278;SDS011;54193;53.746;10.058;2023-06-14T13:08:29;6.32;;;2.83;;
67278;SDS011;54193;53.746;10.058;2023-06-14T13:11:15;5.45;;;3.10;;
67278;SDS011;54193;53.746;10.058;2023-06-14T13:14:01;5.03;;;2.90;;
67278;SDS011;54193;53.746;10.058;2023-06-14T13:16:47;6.07;;;3.10;;
67278;SDS011;54193;53.746;10.058;2023-06-14T13:19:32;5.10;;;3.22;;
67278;SDS011;54193;53.746;10.058;2023-06-14T13:22:18;5.55;;;2.92;;
67278;SDS011;54193;53.746;10.058;2023-06-14T13:25:04;6.43;;;3.25;;
67278;SDS011;54193;53.746;10.058;2023-06-14T13:27:50;6.13;;;2.67;;
67278;SDS011;54193;53.746;10.058;2023-06-14T13:30:35;4.97;;;3.00;;
67278;SDS011;54193;53.746;10.058;2023-06-14T13:33:22;4.72;;;2.53;;
67278;SDS011;54193;53.746;10.058;2023-06-14T13:36:09;4.63;;;2.85;;
67278;SDS011;54193;53.746;10.058;2023-06-14T13:38:55;6.53;;;2.93;;
67278;SDS011;54193;53.746;10.058;2023-06-14T13:41:41;5.25;;;2.90;;
67278;SDS011;54193;53.746;10.058;2023-06-14T13:44:26;5.68;;;2.97;;
67278;SDS011;54193;53.746;10.058;2023-06-14T13:47:12;4.80;;;2.70;;
67278;SDS011;54193;53.746;10.058;2023-06-14T13:49:58;5.93;;;2.63;;
67278;SDS011;54193;53.746;10.058;2023-06-14T13:52:43;5.13;;;2.63;;
67278;SDS011;54193;53.746;10.058;2023-06-14T13:55:29;6.88;;;3.17;;
67278;SDS011;54193;53.746;10.058;2023-06-14T13:58:15;5.32;;;3.30;;
67278;SDS011;54193;53.746;10.058;2023-06-14T14:01:01;9.43;;;2.97;;
67278;SDS011;54193;53.746;10.058;2023-06-14T14:03:47;8.10;;;3.15;;
67278;SDS011;54193;53.746;10.058;2023-06-14T14:06:34;6.60;;;3.40;;
67278;SDS011;54193;53.746;10.058;2023-06-14T14:09:20;5.78;;;2.90;;
67278;SDS011;54193;53.746;10.058;2023-06-14T14:12:06;5.00;;;3.20;;
67278;SDS011;54193;53.746;10.058;2023-06-14T14:14:52;6.85;;;3.00;;
67278;SDS011;54193;53.746;10.058;2023-06-14T14:17:38;10.35;;;3.35;;
67278;SDS011;54193;53.746;10.058;2023-06-14T14:20:24;4.38;;;2.63;;
67278;SDS011;54193;53.746;10.058;2023-06-14T14:23:09;6.27;;;3.33;;
67278;SDS011;54193;53.746;10.058;2023-06-14T14:25:55;7.15;;;3.00;;
67278;SDS011;54193;53.746;10.058;2023-06-14T14:28:41;7.55;;;3.20;;
67278;SDS011;54193;53.746;10.058;2023-06-14T14:31:27;6.05;;;3.05;;
67278;SDS011;54193;53.746;10.058;2023-06-14T14:34:13;6.70;;;3.20;;
67278;SDS011;54193;53.746;10.058;2023-06-14T14:36:59;7.03;;;3.20;;
67278;SDS011;54193;53.746;10.058;2023-06-14T14:39:44;6.63;;;3.10;;
67278;SDS011;54193;53.746;10.058;2023-06-14T14:42:31;5.25;;;3.38;;
67278;SDS011;54193;53.746;10.058;2023-06-14T14:45:16;5.60;;;3.33;;
67278;SDS011;54193;53.746;10.058;2023-06-14T14:48:02;5.85;;;2.92;;
67278;SDS011;54193;53.746;10.058;2023-06-14T14:50:48;5.72;;;3.00;;
67278;SDS011;54193;53.746;10.058;2023-06-14T14:53:34;6.85;;;3.45;;
67278;SDS011;54193;53.746;10.058;2023-06-14T14:56:19;6.10;;;2.90;;
67278;SDS011;54193;53.746;10.058;2023-06-14T14:59:05;6.07;;;3.05;;
67278;SDS011;54193;53.746;10.058;2023-06-14T15:01:51;9.30;;;3.30;;
67278;SDS011;54193;53.746;10.058;2023-06-14T15:04:37;8.07;;;3.63;;
67278;SDS011;54193;53.746;10.058;2023-06-14T15:07:23;4.70;;;3.03;;
67278;SDS011;54193;53.746;10.058;2023-06-14T15:10:08;7.93;;;3.08;;
67278;SDS011;54193;53.746;10.058;2023-06-14T15:12:54;7.65;;;3.33;;
67278;SDS011;54193;53.746;10.058;2023-06-14T15:15:40;6.65;;;3.10;;
67278;SDS011;54193;53.746;10.058;2023-06-14T15:18:26;6.10;;;3.28;;
67278;SDS011;54193;53.746;10.058;2023-06-14T15:21:12;5.00;;;3.00;;
67278;SDS011;54193;53.746;10.058;2023-06-14T15:23:57;4.80;;;3.10;;
67278;SDS011;54193;53.746;10.058;2023-06-14T15:26:43;5.72;;;3.50;;
67278;SDS011;54193;53.746;10.058;2023-06-14T15:29:29;4.97;;;3.00;;
67278;SDS011;54193;53.746;10.058;2023-06-14T15:32:14;7.40;;;3.30;;
67278;SDS011;54193;53.746;10.058;2023-06-14T15:35:00;9.30;;;3.55;;
67278;SDS011;54193;53.746;10.058;2023-06-14T15:37:47;6.50;;;3.10;;
67278;SDS011;54193;53.746;10.058;2023-06-14T15:40:33;6.22;;;3.20;;
67278;SDS011;54193;53.746;10.058;2023-06-14T15:43:18;5.95;;;3.00;;
67278;SDS011;54193;53.746;10.058;2023-06-14T15:46:04;7.55;;;3.20;;
67278;SDS011;54193;53.746;10.058;2023-06-14T15:48:50;10.03;;;2.90;;
67278;SDS011;54193;53.746;10.058;2023-06-14T15:51:36;5.55;;;3.10;;
67278;SDS011;54193;53.746;10.058;2023-06-14T15:54:22;6.95;;;2.88;;
67278;SDS011;54193;53.746;10.058;2023-06-14T15:57:07;6.32;;;3.03;;
67278;SDS011;54193;53.746;10.058;2023-06-14T15:59:54;7.50;;;2.97;;
67278;SDS011;54193;53.746;10.058;2023-06-14T16:02:39;7.45;;;3.00;;
67278;SDS011;54193;53.746;10.058;2023-06-14T16:05:25;6.05;;;2.90;;
67278;SDS011;54193;53.746;10.058;2023-06-14T16:08:11;4.70;;;2.60;;
67278;SDS011;54193;53.746;10.058;2023-06-14T16:10:56;4.43;;;2.70;;
67278;SDS011;54193;53.746;10.058;2023-06-14T16:13:42;5.38;;;2.50;;
67278;SDS011;54193;53.746;10.058;2023-06-14T16:16:27;7.63;;;2.70;;
67278;SDS011;54193;53.746;10.058;2023-06-14T16:19:13;6.40;;;3.13;;
67278;SDS011;54193;53.746;10.058;2023-06-14T16:21:59;5.05;;;2.63;;
67278;SDS011;54193;53.746;10.058;2023-06-14T16:24:44;6.05;;;2.95;;